Time,TemperatureF,DewpointF,PressureIn,WindDirection,WindDirectionDegrees,WindSpeedMPH,WindSpeedGustMPH,Humidity,HourlyPrecipIn,Conditions,Clouds,dailyrainin,SoftwareType,DateUTC
2013-11-26 00:00:00,31.6,27.6,30.49,NNW,329,0.0,8.0,85,0.00,,,0.01,Wunderground v.1.15,2013-11-26 07:00:00,
2013-11-26 00:10:00,31.5,27.5,30.49,NNW,329,0.0,0.0,85,0.00,,,0.00,Wunderground v.1.15,2013-11-26 07:10:00,
2013-11-26 00:20:00,31.8,27.8,30.49,NNW,329,0.0,0.0,85,0.00,,,0.00,Wunderground v.1.15,2013-11-26 07:20:00,
2013-11-26 00:30:00,31.6,27.3,30.48,NNW,329,0.0,0.0,84,0.00,,,0.00,Wunderground v.1.15,2013-11-26 07:30:00,
2013-11-26 00:40:00,30.9,26.6,30.49,NNW,329,0.0,0.0,84,0.00,,,0.00,Wunderground v.1.15,2013-11-26 07:40:00,
2013-11-26 00:50:00,30.5,26.5,30.49,NNW,329,0.0,0.0,85,0.00,,,0.00,Wunderground v.1.15,2013-11-26 07:50:00,
2013-11-26 01:00:00,29.9,25.9,30.49,NNW,329,0.0,0.0,85,0.00,,,0.00,Wunderground v.1.15,2013-11-26 08:00:00,
2013-11-26 01:10:00,29.3,25.6,30.49,NNW,329,0.0,1.0,86,0.00,,,0.00,Wunderground v.1.15,2013-11-26 08:10:00,
2013-11-26 01:20:00,29.1,25.7,30.49,NNW,329,0.0,1.0,87,0.00,,,0.00,Wunderground v.1.15,2013-11-26 08:20:00,
2013-11-26 01:30:00,28.8,25.4,30.50,NNW,329,0.0,1.0,87,0.00,,,0.00,Wunderground v.1.15,2013-11-26 08:30:00,
2013-11-26 01:40:00,28.3,25.2,30.50,NNW,329,0.0,1.0,88,0.00,,,0.00,Wunderground v.1.15,2013-11-26 08:40:00,
2013-11-26 01:50:00,28.3,25.5,30.50,NNW,329,0.0,1.0,89,0.00,,,0.00,Wunderground v.1.15,2013-11-26 08:50:00,
2013-11-26 02:00:00,28.1,25.3,30.50,NNW,329,0.0,1.0,89,0.00,,,0.00,Wunderground v.1.15,2013-11-26 09:00:00,
2013-11-26 02:11:00,28.1,25.3,30.50,NNW,329,0.0,1.0,89,0.00,,,0.00,Wunderground v.1.15,2013-11-26 09:11:00,
2013-11-26 02:21:00,28.5,25.9,30.50,NNW,329,0.0,1.0,90,0.00,,,0.00,Wunderground v.1.15,2013-11-26 09:21:00,
2013-11-26 02:31:00,28.9,26.1,30.50,NNW,329,0.0,1.0,89,0.00,,,0.00,Wunderground v.1.15,2013-11-26 09:31:00,
2013-11-26 02:41:00,28.8,26.0,30.50,NNW,329,0.0,1.0,89,0.00,,,0.00,Wunderground v.1.15,2013-11-26 09:41:00,
2013-11-26 02:51:00,28.8,25.4,30.50,NNW,329,0.0,1.0,87,0.00,,,0.00,Wunderground v.1.15,2013-11-26 09:51:00,
2013-11-26 03:01:00,28.2,24.8,30.51,NNW,329,0.0,1.0,87,0.00,,,0.00,Wunderground v.1.15,2013-11-26 10:01:00,
2013-11-26 03:11:00,28.0,24.9,30.51,NNW,329,0.0,1.0,88,0.00,,,0.00,Wunderground v.1.15,2013-11-26 10:11:00,
2013-11-26 03:20:00,27.8,24.7,30.51,NNW,329,0.0,1.0,88,0.00,,,0.00,Wunderground v.1.15,2013-11-26 10:20:00,
2013-11-26 03:30:00,27.4,24.3,30.51,NNW,329,0.0,1.0,88,0.00,,,0.00,Wunderground v.1.15,2013-11-26 10:30:00,
2013-11-26 03:40:00,27.4,24.6,30.51,NNW,329,0.0,1.0,89,0.00,,,0.00,Wunderground v.1.15,2013-11-26 10:40:00,
2013-11-26 03:50:00,27.5,24.7,30.52,NNW,329,0.0,1.0,89,0.00,,,0.00,Wunderground v.1.15,2013-11-26 10:50:00,
2013-11-26 04:00:00,27.6,24.8,30.52,NNW,329,0.0,1.0,89,0.00,,,0.00,Wunderground v.1.15,2013-11-26 11:00:00,
2013-11-26 04:10:00,27.5,24.7,30.52,NNW,329,0.0,1.0,89,0.00,,,0.00,Wunderground v.1.15,2013-11-26 11:10:00,
2013-11-26 04:20:00,27.0,23.9,30.52,NNW,329,0.0,1.0,88,0.00,,,0.00,Wunderground v.1.15,2013-11-26 11:20:00,
2013-11-26 04:30:00,26.9,24.1,30.52,NNW,329,0.0,1.0,89,0.00,,,0.00,Wunderground v.1.15,2013-11-26 11:30:00,
2013-11-26 04:40:00,26.6,24.1,30.52,NNW,329,0.0,1.0,90,0.00,,,0.00,Wunderground v.1.15,2013-11-26 11:40:00,
2013-11-26 04:50:00,26.4,23.9,30.52,NNW,329,0.0,1.0,90,0.00,,,0.00,Wunderground v.1.15,2013-11-26 11:50:00,
2013-11-26 05:00:00,26.0,23.2,30.52,NNW,329,0.0,1.0,89,0.00,,,0.00,Wunderground v.1.15,2013-11-26 12:00:00,
2013-11-26 05:10:00,25.9,23.6,30.53,NNW,329,0.0,1.0,91,0.00,,,0.00,Wunderground v.1.15,2013-11-26 12:10:00,
2013-11-26 05:20:00,25.9,23.6,30.53,NNW,329,0.0,1.0,91,0.00,,,0.00,Wunderground v.1.15,2013-11-26 12:20:00,
2013-11-26 05:30:00,26.0,23.7,30.53,NNW,329,0.0,1.0,91,0.00,,,0.00,Wunderground v.1.15,2013-11-26 12:30:00,
2013-11-26 05:40:00,26.5,24.5,30.53,NNW,329,0.0,1.0,92,0.00,,,0.00,Wunderground v.1.15,2013-11-26 12:40:00,
2013-11-26 05:50:00,26.8,24.5,30.54,NNW,329,0.0,1.0,91,0.00,,,0.00,Wunderground v.1.15,2013-11-26 12:50:00,
2013-11-26 06:00:00,26.5,24.2,30.54,NNW,329,0.0,1.0,91,0.00,,,0.00,Wunderground v.1.15,2013-11-26 13:00:00,
2013-11-26 06:10:00,26.8,24.5,30.54,NNW,329,0.0,1.0,91,0.00,,,0.00,Wunderground v.1.15,2013-11-26 13:10:00,
2013-11-26 06:20:00,27.2,24.9,30.54,NNW,329,0.0,1.0,91,0.00,,,0.00,Wunderground v.1.15,2013-11-26 13:20:00,
2013-11-26 06:30:00,27.2,24.9,30.54,NNW,329,0.0,1.0,91,0.00,,,0.00,Wunderground v.1.15,2013-11-26 13:30:00,
2013-11-26 06:40:00,27.2,24.9,30.55,NNW,329,0.0,1.0,91,0.00,,,0.00,Wunderground v.1.15,2013-11-26 13:40:00,
2013-11-26 06:50:00,27.1,24.8,30.55,NNW,329,0.0,1.0,91,0.00,,,0.00,Wunderground v.1.15,2013-11-26 13:50:00,
2013-11-26 07:00:00,26.9,24.4,30.56,NNW,329,0.0,1.0,90,0.00,,,0.00,Wunderground v.1.15,2013-11-26 14:00:00,
2013-11-26 07:10:00,26.8,24.5,30.56,NNW,329,0.0,1.0,91,0.00,,,0.00,Wunderground v.1.15,2013-11-26 14:10:00,
2013-11-26 07:20:00,27.4,25.4,30.57,NNW,329,0.0,1.0,92,0.00,,,0.00,Wunderground v.1.15,2013-11-26 14:20:00,
2013-11-26 07:30:00,28.9,26.9,30.57,NNW,329,0.0,1.0,92,0.00,,,0.00,Wunderground v.1.15,2013-11-26 14:30:00,
2013-11-26 07:40:00,29.1,26.3,30.57,NNW,329,0.0,1.0,89,0.00,,,0.00,Wunderground v.1.15,2013-11-26 14:40:00,
2013-11-26 07:50:00,29.5,26.7,30.58,NNW,329,0.0,1.0,89,0.00,,,0.00,Wunderground v.1.15,2013-11-26 14:50:00,
2013-11-26 08:00:00,30.4,27.0,30.58,NNW,329,0.0,1.0,87,0.00,,,0.00,Wunderground v.1.15,2013-11-26 15:00:00,
2013-11-26 08:10:00,31.2,26.9,30.59,NNW,329,0.0,1.0,84,0.00,,,0.00,Wunderground v.1.15,2013-11-26 15:10:00,
2013-11-26 08:20:00,30.9,26.3,30.59,NNW,329,1.0,4.0,83,0.00,,,0.00,Wunderground v.1.15,2013-11-26 15:20:00,
2013-11-26 08:30:00,31.1,26.2,30.60,NNW,329,1.0,1.0,82,0.00,,,0.00,Wunderground v.1.15,2013-11-26 15:30:00,
2013-11-26 08:40:00,31.3,26.4,30.60,NNW,329,2.0,2.0,82,0.00,,,0.00,Wunderground v.1.15,2013-11-26 15:40:00,
2013-11-26 08:50:00,31.6,26.4,30.60,NNW,329,2.0,3.0,81,0.00,,,0.00,Wunderground v.1.15,2013-11-26 15:50:00,
2013-11-26 09:00:00,32.7,27.2,30.60,NNW,329,2.0,3.0,80,0.00,,,0.00,Wunderground v.1.15,2013-11-26 16:00:00,
2013-11-26 09:10:00,33.4,27.6,30.60,NNW,329,2.0,2.0,79,0.00,,,0.00,Wunderground v.1.15,2013-11-26 16:10:00,
2013-11-26 09:20:00,34.2,27.7,30.61,NNW,329,3.0,3.0,77,0.00,,,0.00,Wunderground v.1.15,2013-11-26 16:20:00,
2013-11-26 09:30:00,34.8,28.3,30.60,NNW,329,3.0,3.0,77,0.00,,,0.00,Wunderground v.1.15,2013-11-26 16:30:00,
2013-11-26 09:40:00,35.8,28.6,30.60,NNW,329,2.0,2.0,75,0.00,,,0.00,Wunderground v.1.15,2013-11-26 16:40:00,
2013-11-26 09:50:00,36.4,28.6,30.60,NNW,329,2.0,5.0,73,0.00,,,0.00,Wunderground v.1.15,2013-11-26 16:50:00,
2013-11-26 10:00:00,37.0,28.8,30.60,NNW,329,3.0,3.0,72,0.00,,,0.00,Wunderground v.1.15,2013-11-26 17:00:00,
2013-11-26 10:10:00,37.2,28.7,30.60,NNW,328,3.0,5.0,71,0.00,,,0.00,Wunderground v.1.15,2013-11-26 17:10:00,
2013-11-26 10:20:00,37.9,29.0,30.60,NNW,330,2.0,4.0,70,0.00,,,0.00,Wunderground v.1.15,2013-11-26 17:20:00,
2013-11-26 10:30:00,38.5,29.6,30.59,NNW,328,1.0,3.0,70,0.00,,,0.00,Wunderground v.1.15,2013-11-26 17:30:00,
2013-11-26 10:40:00,39.0,29.3,30.59,NNW,328,2.0,2.0,68,0.00,,,0.00,Wunderground v.1.15,2013-11-26 17:40:00,
2013-11-26 10:50:00,39.8,29.7,30.59,NNW,329,2.0,4.0,67,0.00,,,0.00,Wunderground v.1.15,2013-11-26 17:50:00,
2013-11-26 11:00:00,40.5,30.0,30.58,NNW,329,1.0,3.0,66,0.00,,,0.00,Wunderground v.1.15,2013-11-26 18:00:00,
2013-11-26 11:10:00,41.5,30.6,30.58,NNW,329,1.0,2.0,65,0.00,,,0.00,Wunderground v.1.15,2013-11-26 18:10:00,
2013-11-26 11:20:00,41.9,29.8,30.57,NNW,329,1.0,2.0,62,0.00,,,0.00,Wunderground v.1.15,2013-11-26 18:20:00,
2013-11-26 11:30:00,42.8,29.9,30.56,NNW,330,1.0,2.0,60,0.00,,,0.00,Wunderground v.1.15,2013-11-26 18:30:00,
2013-11-26 11:40:00,42.8,29.9,30.56,NW,323,3.0,3.0,60,0.00,,,0.00,Wunderground v.1.15,2013-11-26 18:40:00,
2013-11-26 11:50:00,43.6,30.2,30.56,NW,323,1.0,1.0,59,0.00,,,0.00,Wunderground v.1.15,2013-11-26 18:50:00,
2013-11-26 12:00:00,44.3,30.0,30.55,NW,323,1.0,2.0,57,0.00,,,0.00,Wunderground v.1.15,2013-11-26 19:00:00,
2013-11-26 12:10:00,45.2,30.0,30.54,NW,321,1.0,1.0,55,0.00,,,0.00,Wunderground v.1.15,2013-11-26 19:10:00,
2013-11-26 12:20:00,44.9,30.6,30.54,NNW,346,2.0,2.0,57,0.00,,,0.00,Wunderground v.1.15,2013-11-26 19:20:00,
2013-11-26 12:30:00,46.2,30.5,30.54,NNW,345,1.0,1.0,54,0.00,,,0.00,Wunderground v.1.15,2013-11-26 19:30:00,
2013-11-26 12:40:00,46.2,30.5,30.54,NNW,343,2.0,2.0,54,0.00,,,0.00,Wunderground v.1.15,2013-11-26 19:40:00,
2013-11-26 12:50:00,46.2,30.0,30.53,NNW,343,1.0,1.0,53,0.00,,,0.00,Wunderground v.1.15,2013-11-26 19:50:00,
2013-11-26 13:00:00,46.8,30.1,30.53,NNW,332,1.0,2.0,52,0.00,,,0.00,Wunderground v.1.15,2013-11-26 20:00:00,
2013-11-26 13:10:00,47.0,30.3,30.53,NW,326,2.0,2.0,52,0.00,,,0.00,Wunderground v.1.15,2013-11-26 20:10:00,
2013-11-26 13:20:00,47.1,29.9,30.52,NW,326,1.0,1.0,51,0.00,,,0.00,Wunderground v.1.15,2013-11-26 20:20:00,
2013-11-26 13:30:00,47.3,30.5,30.52,NW,326,1.0,1.0,52,0.00,,,0.00,Wunderground v.1.15,2013-11-26 20:30:00,
2013-11-26 13:40:00,46.5,30.3,30.52,NNW,340,2.0,2.0,53,0.00,,,0.00,Wunderground v.1.15,2013-11-26 20:40:00,
2013-11-26 13:50:00,46.7,30.5,30.51,NNW,340,1.0,1.0,53,0.00,,,0.00,Wunderground v.1.15,2013-11-26 20:50:00,
2013-11-26 14:00:00,47.2,30.0,30.51,NW,320,1.0,2.0,51,0.00,,,0.00,Wunderground v.1.15,2013-11-26 21:00:00,
2013-11-26 14:10:00,47.7,30.0,30.51,NW,317,1.0,1.0,50,0.00,,,0.00,Wunderground v.1.15,2013-11-26 21:10:00,
2013-11-26 14:20:00,48.3,30.5,30.51,NW,317,1.0,2.0,50,0.00,,,0.00,Wunderground v.1.15,2013-11-26 21:20:00,
2013-11-26 14:30:00,49.0,30.1,30.51,NW,315,1.0,1.0,48,0.00,,,0.00,Wunderground v.1.15,2013-11-26 21:30:00,
2013-11-26 14:40:00,49.1,30.2,30.51,NW,315,1.0,1.0,48,0.00,,,0.00,Wunderground v.1.15,2013-11-26 21:40:00,
2013-11-26 14:50:00,48.7,29.9,30.51,NW,315,1.0,1.0,48,0.00,,,0.00,Wunderground v.1.15,2013-11-26 21:50:00,
2013-11-26 15:00:00,48.6,29.8,30.51,NW,315,1.0,1.0,48,0.00,,,0.00,Wunderground v.1.15,2013-11-26 22:00:00,
2013-11-26 15:10:00,49.0,30.1,30.51,NW,315,0.0,1.0,48,0.00,,,0.00,Wunderground v.1.15,2013-11-26 22:10:00,
2013-11-26 15:20:00,49.2,29.3,30.51,NW,311,1.0,5.0,46,0.00,,,0.00,Wunderground v.1.15,2013-11-26 22:20:00,
2013-11-26 15:30:00,49.3,29.4,30.51,NW,312,1.0,1.0,46,0.00,,,0.00,Wunderground v.1.15,2013-11-26 22:30:00,
2013-11-26 15:40:00,49.5,29.6,30.51,NW,311,0.0,1.0,46,0.00,,,0.00,Wunderground v.1.15,2013-11-26 22:40:00,
2013-11-26 15:50:00,49.9,29.9,30.51,NW,312,0.0,1.0,46,0.00,,,0.00,Wunderground v.1.15,2013-11-26 22:50:00,
2013-11-26 16:00:00,49.4,29.5,30.51,NW,311,1.0,1.0,46,0.00,,,0.00,Wunderground v.1.15,2013-11-26 23:00:00,
2013-11-26 16:10:00,48.8,28.9,30.51,NW,312,1.0,1.0,46,0.00,,,0.00,Wunderground v.1.15,2013-11-26 23:10:00,
2013-11-26 16:20:00,48.9,30.1,30.50,NW,312,0.0,1.0,48,0.00,,,0.00,Wunderground v.1.15,2013-11-26 23:20:00,
2013-11-26 16:30:00,49.1,29.7,30.50,NW,312,0.0,1.0,47,0.00,,,0.00,Wunderground v.1.15,2013-11-26 23:30:00,
2013-11-26 16:40:00,48.9,29.5,30.50,NW,311,0.0,1.0,47,0.00,,,0.00,Wunderground v.1.15,2013-11-26 23:40:00,
2013-11-26 16:50:00,48.4,29.6,30.50,NW,311,0.0,1.0,48,0.00,,,0.00,Wunderground v.1.15,2013-11-26 23:50:00,
2013-11-26 17:00:00,47.8,29.5,30.50,NW,311,0.0,1.0,49,0.00,,,0.00,Wunderground v.1.15,2013-11-27 00:00:00,
2013-11-26 17:10:00,46.8,29.1,30.50,NW,311,0.0,1.0,50,0.00,,,0.00,Wunderground v.1.15,2013-11-27 00:10:00,
2013-11-26 17:20:00,46.1,29.4,30.50,NW,311,0.0,1.0,52,0.00,,,0.00,Wunderground v.1.15,2013-11-27 00:20:00,
2013-11-26 17:30:00,45.6,29.4,30.50,NW,311,0.0,1.0,53,0.00,,,0.00,Wunderground v.1.15,2013-11-27 00:30:00,
2013-11-26 17:40:00,45.0,29.8,30.51,NW,311,0.0,1.0,55,0.00,,,0.00,Wunderground v.1.15,2013-11-27 00:40:00,
2013-11-26 17:50:00,44.5,29.3,30.51,NW,312,0.0,1.0,55,0.00,,,0.00,Wunderground v.1.15,2013-11-27 00:50:00,
2013-11-26 18:00:00,44.1,29.4,30.51,NW,312,0.0,1.0,56,0.00,,,0.00,Wunderground v.1.15,2013-11-27 01:00:00,
2013-11-26 18:10:00,43.7,29.9,30.51,NW,311,0.0,1.0,58,0.00,,,0.00,Wunderground v.1.15,2013-11-27 01:10:00,
2013-11-26 18:20:00,43.1,30.1,30.52,NW,311,0.0,1.0,60,0.00,,,0.00,Wunderground v.1.15,2013-11-27 01:20:00,
2013-11-26 18:30:00,42.3,30.2,30.52,NW,312,0.0,1.0,62,0.00,,,0.00,Wunderground v.1.15,2013-11-27 01:30:00,
2013-11-26 18:40:00,41.6,29.9,30.52,NW,311,0.0,1.0,63,0.00,,,0.00,Wunderground v.1.15,2013-11-27 01:40:00,
2013-11-26 18:50:00,40.8,29.6,30.52,NW,311,0.0,1.0,64,0.00,,,0.00,Wunderground v.1.15,2013-11-27 01:50:00,
2013-11-26 19:00:00,40.3,29.8,30.52,NW,312,0.0,1.0,66,0.00,,,0.00,Wunderground v.1.15,2013-11-27 02:00:00,
2013-11-26 19:10:00,39.9,29.8,30.52,NW,312,0.0,1.0,67,0.00,,,0.00,Wunderground v.1.15,2013-11-27 02:10:00,
2013-11-26 19:20:00,39.5,29.4,30.52,NW,312,0.0,1.0,67,0.00,,,0.00,Wunderground v.1.15,2013-11-27 02:20:00,
2013-11-26 19:30:00,39.2,29.2,30.52,NW,311,0.0,1.0,67,0.00,,,0.00,Wunderground v.1.15,2013-11-27 02:30:00,
2013-11-26 19:40:00,39.1,29.4,30.52,NW,311,0.0,1.0,68,0.00,,,0.00,Wunderground v.1.15,2013-11-27 02:40:00,
2013-11-26 19:50:00,38.9,29.2,30.52,NW,311,0.0,1.0,68,0.00,,,0.00,Wunderground v.1.15,2013-11-27 02:50:00,
2013-11-26 20:00:00,38.5,29.2,30.53,NW,311,0.0,1.0,69,0.00,,,0.00,Wunderground v.1.15,2013-11-27 03:00:00,
2013-11-26 20:10:00,38.4,29.5,30.53,NW,311,0.0,1.0,70,0.00,,,0.00,Wunderground v.1.15,2013-11-27 03:10:00,
2013-11-26 20:20:00,38.6,29.3,30.53,NW,312,0.0,1.0,69,0.00,,,0.00,Wunderground v.1.15,2013-11-27 03:20:00,
2013-11-26 20:30:00,38.6,30.0,30.53,NW,311,0.0,1.0,71,0.00,,,0.00,Wunderground v.1.15,2013-11-27 03:30:00,
2013-11-26 20:40:00,38.3,29.7,30.53,NW,311,0.0,1.0,71,0.00,,,0.00,Wunderground v.1.15,2013-11-27 03:40:00,
2013-11-26 20:50:00,38.0,29.8,30.53,NW,311,0.0,1.0,72,0.00,,,0.00,Wunderground v.1.15,2013-11-27 03:50:00,
2013-11-26 21:00:00,37.7,30.2,30.53,NW,311,0.0,1.0,74,0.00,,,0.00,Wunderground v.1.15,2013-11-27 04:00:00,
2013-11-26 21:10:00,37.7,30.2,30.53,NW,312,0.0,1.0,74,0.00,,,0.00,Wunderground v.1.15,2013-11-27 04:10:00,
2013-11-26 21:20:00,37.5,30.3,30.53,NW,312,0.0,1.0,75,0.00,,,0.00,Wunderground v.1.15,2013-11-27 04:20:00,
2013-11-26 21:30:00,36.8,30.3,30.53,NW,311,0.0,1.0,77,0.00,,,0.00,Wunderground v.1.15,2013-11-27 04:30:00,
2013-11-26 21:40:00,36.4,30.2,30.53,NW,311,0.0,1.0,78,0.00,,,0.00,Wunderground v.1.15,2013-11-27 04:40:00,
2013-11-26 21:50:00,36.0,30.1,30.53,NW,311,0.0,1.0,79,0.00,,,0.00,Wunderground v.1.15,2013-11-27 04:50:00,
2013-11-26 22:00:00,35.5,29.9,30.53,NW,312,0.0,1.0,80,0.00,,,0.00,Wunderground v.1.15,2013-11-27 05:00:00,
2013-11-26 22:10:00,35.1,29.6,30.54,NW,312,0.0,1.0,80,0.00,,,0.00,Wunderground v.1.15,2013-11-27 05:10:00,
2013-11-26 22:20:00,35.0,29.5,30.53,NW,312,0.0,1.0,80,0.00,,,0.00,Wunderground v.1.15,2013-11-27 05:20:00,
2013-11-26 22:30:00,34.6,29.4,30.53,NW,312,0.0,1.0,81,0.00,,,0.00,Wunderground v.1.15,2013-11-27 05:30:00,
2013-11-26 22:40:00,34.6,29.4,30.54,NW,312,0.0,1.0,81,0.00,,,0.00,Wunderground v.1.15,2013-11-27 05:40:00,
2013-11-26 22:50:00,34.4,29.2,30.54,NW,312,0.0,1.0,81,0.00,,,0.00,Wunderground v.1.15,2013-11-27 05:50:00,
2013-11-26 23:00:00,34.2,28.7,30.54,NW,312,0.0,1.0,80,0.00,,,0.00,Wunderground v.1.15,2013-11-27 06:00:00,
2013-11-26 23:10:00,34.1,28.9,30.54,NW,311,0.0,1.0,81,0.00,,,0.00,Wunderground v.1.15,2013-11-27 06:10:00,
2013-11-26 23:20:00,34.1,28.3,30.54,NW,311,0.0,1.0,79,0.00,,,0.00,Wunderground v.1.15,2013-11-27 06:20:00,
2013-11-26 23:30:00,33.9,28.1,30.54,NW,312,1.0,1.0,79,0.00,,,0.00,Wunderground v.1.15,2013-11-27 06:30:00,
2013-11-26 23:40:00,33.8,28.0,30.54,NW,311,0.0,1.0,79,0.00,,,0.00,Wunderground v.1.15,2013-11-27 06:40:00,
2013-11-26 23:50:00,33.7,27.9,30.54,NW,311,0.0,1.0,79,0.00,,,0.00,Wunderground v.1.15,2013-11-27 06:50:00,